Aeroporto :
LOGIN :

Iscrizione | Disclaimer

   EN    FR    IT 

 










Sommario :    VFR   VFR Marginale   IFR   IFR Intensivo   IFR Molto Intensivo
Visibilità : 
Base nubi : 
>= 8 km
>= 3000ft
5 / 8 km
1000 / 3000 ft
1500m / 5 km
500 / 1000 ft
800 / 1500m
200 / 500 ft
< 800m
< 200 ft
Simboli :   Temporali  Nebbia  Neve Forte  Precipitazioni Forti  Vento > 20 kt
SIGMETs :   Varie  Temporali  Ghiacco  Turbolenza  Onda orograficha  Ceneri Vulcaniche







- Altitudine del aeroporto : 46 ft
- Codice IATA : SNN


EINN - Shannon

ULTIMO METAR :
  • 252130Z 35003KT 9999 FEW024 BKN042 08/04 Q1037 NOSIG

METARs OBSOLETI :
  • 252100Z 34005KT 9999 FEW024 BKN042 08/04 Q1037 NOSIG
  • 252030Z 02003KT 9999 FEW024 BKN042 08/04 Q1037 NOSIG
  • 252000Z 33005KT 9999 FEW024 BKN042 08/04 Q1036 NOSIG
  • 251930Z 33005KT 9999 FEW024 SCT040 08/04 Q1036 NOSIG
  • 251900Z 33005KT 9999 FEW040 08/03 Q1036 NOSIG

TAF TAF EINN
Valido dal 25 a 18 ore il 26 a 18 ore UTC


251700Z 2518/2618 30007KT 9999 SCT025
BECMG 2521/2524 VRB03KT
TEMPO 2603/2608 2000 BR
BECMG 2609/2612 27007KT
Nessun NOTAM noto per questo aeroporto.



MetMap, La meteo Aeronautica in un colpo d'occhio ! - Copyright ORBIFLY Dicembre 2007 - Disclaimer

ORBIFLY MET'MAP TEAM :

Programmazione e sviluppo : Alexandra Zaïnal
Concezione e sviluppo : Baudouin d'Aumeries
Co-Programmazione e sviluppo : Marc-Olivier Méhu
Supporto tecnico e logistico : Manuel Goepfert
Aiuto per la traduzione : Arnaldo La Scala

Contatto : metmap@orbifly.com




FONTI E CREDITI :

   NOAA